Lloydminster Airport
CYLL : now visible

Airfield :











YOU CAN JOIN US ON...

 
LOGIN :

Register | Disclaimer

   EN    FR    IT 

 









Legend :    VFR   Marginal VFR   IFR   Intensive IFR   Very Intensive IFR
Visi :
Ceiling :
>= 8 km
>= 3000ft
5 to 8 km
1000 to 3000 ft
1500m to 5 km
500 to 1000 ft
800 to 1500m
200 to 500 ft
< 800m
< 200 ft
Symbols :   Thunderstorms  Fog  Heavy snow  Heavy precipitations  Wind > 20 kt






- Airport Elevation : 2193 ft
- IATA code : YLL


CYLL - Lloydminster

CURRENT METAR :
  • 271700Z 30008KT 15SM BKN060 OVC140 M04/M07 A2932 RMK SC6AC2 SLP967

EXPIRED METARs :
  • 271600Z 00000KT 15SM OVC130 M06/M08 A2931 RMK AC8 SLP966
  • 271500Z 22003KT 15SM BKN140 M06/M07 A2933 RMK AC7 SLP969

TAF TAF CYLL
Valid from the 27 at 12:00 until the 28 at 00:00 UTC


271147Z 2712/2724 18005KT P6SM OVC080
TEMPO 2712/2717 SCT080 OVC160
FM271700 30008KT P6SM SCT020 OVC040
TEMPO 2717/2719 2SM -SHSN VV020
FM271900 33012KT 1 1/2SM -SHSN VV012
TEMPO 2719/2724 6SM -SN SCT012 OVC025
BECMG 2721/2723 33012G22KT RMK FCST BASED ON AUTO OBS. NXT FCST BY 271800Z
CZEG FIR / North America



MET'MAP, your aeronautical weather chart ! - Copyright ORBIFLY December 2007 - Disclaimer

ORBIFLY MET'MAP TEAM :

Programming & Development : Alexandra Zaïnal
Original concept : Baudouin d'Aumeries
Technical & hardware support : Manuel Goepfert
Assistance : Marc-Olivier Méhu




SOURCES & CREDITS :

   NOAA       Earth
Advisory